Bodega Marine Reserve, California Weather observations

Data are for 10 minute period ending at time listed.
 Day   Time   Solar   Ave.   Ave.  Ave.  Vector  Max.   Baro.   Total    
  of    of     Rad.   Air    Rel.  Wind   Wind   Wind  Press.  Precip.   
Year   Day            Temp.  Hum.  Speed  Dir.   Gust                    
2018   (PST)  Kw/m2    F      %     mph   deg.    mph    mb.     in.     
-------------------------------------------------------------------------
 140    0:10   0.00   50.8    92   20.5   295    28.9   1011.6    0.00 
 140    0:20   0.00   50.8    92   22.3   297    30.2   1011.5    0.00 
 140    0:30   0.00   50.8    92   24.6   296    31.6   1011.4    0.00 
 140    0:40   0.00   50.6    92   21.9   298    30.0   1011.5    0.00 
 140    0:50   0.00   50.8    92   22.4   299    29.4   1011.5    0.00 
 140    1:00   0.00   50.8    92   19.8   299    26.6   1011.6    0.00 
 140    1:10   0.00   50.5    92   19.0   300    27.0   1011.6    0.00 
 140    1:20   0.00   50.4    92   18.8   298    25.9   1011.5    0.00 
 140    1:30   0.00   50.4    93   19.2   298    24.3   1011.4    0.00 
 140    1:40   0.00   50.5    93   19.8   296    25.8   1011.3    0.00 
 140    1:50   0.00   50.4    93   19.2   298    24.9   1011.3    0.00 
 140    2:00   0.00   50.3    93   18.9   299    25.9   1011.2    0.00 
 140    2:10   0.00   50.3    93   19.8   297    25.5   1011.2    0.00 
 140    2:20   0.00   50.2    93   18.3   297    23.7   1011.2    0.00 
 140    2:30   0.00   50.2    93   18.7   296    23.8   1011.2    0.00 
 140    2:40   0.00   50.2    93   18.8   295    25.3   1011.2    0.00 
 140    2:50   0.00   50.2    93   18.6   296    25.9   1011.2    0.00 
 140    3:00   0.00   50.1    93   17.7   299    23.1   1011.2    0.00 
 140    3:10   0.00   50.1    93   18.2   299    24.0   1011.2    0.00 
 140    3:20   0.00   50.0    93   17.0   300    22.7   1011.2    0.00 
 140    3:30   0.00   50.0    93   17.6   300    23.0   1011.2    0.00 
 140    3:40   0.00   50.0    93   18.3   300    24.7   1011.2    0.00 
 140    3:50   0.00   50.1    93   18.7   298    25.1   1011.3    0.00 
 140    4:00   0.00   50.2    92   20.0   298    26.9   1011.3    0.00 
 140    4:10   0.00   50.2    92   18.6   300    25.8   1011.4    0.00 
 140    4:20   0.00   50.2    92   20.3   301    28.6   1011.3    0.00 
 140    4:30   0.00   50.3    92   20.4   298    27.7   1011.2    0.00 
 140    4:40   0.00   50.2    92   19.7   300    27.7   1011.2    0.00 
 140    4:50   0.00   50.1    92   19.1   300    24.6   1011.2    0.00 
 140    5:00   0.01   50.1    92   17.5   298    23.9   1011.3    0.00 
 140    5:10   0.02   50.1    92   16.7   299    24.0   1011.3    0.00 
 140    5:20   0.03   50.2    92   17.2   300    23.6   1011.5    0.00 
 140    5:30   0.06   50.5    92   16.8   302    23.2   1011.6    0.00 
 140    5:40   0.09   50.8    91   16.5   304    21.8   1011.8    0.00 
 140    5:50   0.09   50.9    91   15.5   303    20.2   1011.9    0.00 
 140    6:00   0.10   51.0    91   16.3   302    24.2   1012.0    0.00 
 140    6:10   0.10   51.0    90   16.0   302    21.3   1012.2    0.00 
 140    6:20   0.12   51.2    90   16.9   301    21.3   1012.2    0.00 
 140    6:30   0.15   51.5    90   16.6   301    22.8   1012.2    0.00 
 140    6:40   0.17   51.9    89   17.1   302    23.9   1012.2    0.00 
 140    6:50   0.23   52.2    88   17.1   302    23.1   1012.3    0.00 
 140    7:00   0.27   52.7    87   18.6   302    24.9   1012.3    0.00 
 140    7:10   0.36   53.4    86   19.1   302    24.6   1012.3    0.00 
 140    7:20   0.35   53.6    85   18.5   302    23.5   1012.3    0.00 
 140    7:30   0.31   53.6    84   16.8   303    26.0   1012.4    0.00 
 140    7:40   0.39   53.9    84   16.3   304    23.2   1012.4    0.00 
 140    7:50   0.49   54.6    82   17.1   307    22.5   1012.5    0.00 
 140    8:00   0.43   54.6    82   17.2   305    25.1   1012.5    0.00 
 140    8:10   0.54   55.2    81   15.6   306    21.8   1012.6    0.00 
 140    8:20   0.53   55.4    80   15.8   307    21.1   1012.6    0.00 
 140    8:30   0.58   55.5    80   16.4   305    22.3   1012.7    0.00 
 140    8:40   0.61   55.9    79   16.9   303    22.7   1012.7    0.00 
 140    8:50   0.64   56.3    78   17.7   303    24.4   1012.6    0.00 
 140    9:00   0.68   56.8    77   18.1   303    25.9   1012.6    0.00 
 140    9:10   0.66   56.6    77   17.4   305    24.3   1012.6    0.00 
 140    9:20   0.69   56.7    76   18.3   303    25.1   1012.5    0.00 
 140    9:30   0.74   56.8    76   18.8   304    25.8   1012.6    0.00 
 140    9:40   0.76   57.5    75   17.4   302    24.6   1012.6    0.00 
 140    9:50   0.77   57.0    75   18.0   305    23.7   1012.6    0.00 
 140   10:00   0.80   57.3    75   19.0   302    24.1   1012.6    0.00 
 140   10:10   0.82   57.6    74   18.9   302    25.0   1012.6    0.00 
 140   10:20   0.84   57.7    74   20.0   302    26.2   1012.6    0.00 
 140   10:30   0.86   58.0    73   19.8   303    27.6   1012.7    0.00 
 140   10:40   0.87   58.3    72   20.7   302    28.9   1012.6    0.00 
 140   10:50   0.88   58.0    73   21.8   303    29.2   1012.6    0.00 
 140   11:00   0.89   57.7    73   22.0   303    28.7   1012.5    0.00 
 140   11:10   0.92   58.5    71   21.3   301    27.1   1012.6    0.00 
 140   11:20   0.91   58.3    71   22.0   301    30.4   1012.5    0.00 
 140   11:30   0.93   58.4    70   22.6   301    32.2   1012.5    0.00 
 140   11:40   0.88   58.3    70   22.3   302    29.7   1012.4    0.00 
 140   11:50   0.95   58.6    70   22.9   300    33.4   1012.2    0.00 
 140   12:00   0.87   58.6    70   21.1   294    31.9   1012.1    0.00 
 140   12:10   0.97   58.9    70   22.4   297    32.4   1012.0    0.00 
 140   12:20   0.87   58.4    70   22.5   295    29.4   1011.9    0.00 
 140   12:30   0.88   58.2    71   23.5   295    31.9   1011.8    0.00 
 140   12:40   0.97   58.0    71   25.7   295    34.3   1011.7    0.00 
 140   12:50   0.96   58.3    71   24.9   295    31.9   1011.6    0.00 
 140   13:00   0.93   58.5    70   24.1   297    35.0   1011.6    0.00 
 140   13:10   0.89   58.9    70   23.0   296    35.1   1011.6    0.00 
 140   13:20   0.67   57.9    71   25.0   297    36.6   1011.5    0.00 
 140   13:30   0.41   55.9    75   25.9   297    34.9   1011.5    0.00 
 140   13:40   0.39   55.7    76   24.3   298    35.7   1011.4    0.00 
 140   13:50   0.48   56.4    74   25.6   298    35.4   1011.3    0.00 
 140   14:00   0.64   56.5    75   26.4   297    34.0   1011.2    0.00 
 140   14:10   0.48   56.5    75   25.1   298    33.2   1011.1    0.00 
 140   14:20   0.34   55.6    77   25.3   298    34.3   1010.9    0.00 
 140   14:30   0.37   56.9    76   23.8   298    30.9   1011.0    0.00 
 140   14:40   0.35   57.3    75   26.2   297    34.3   1011.0    0.00 
 140   14:50   0.50   58.4    73   25.1   297    33.6   1011.0    0.00 
 140   15:00   0.57   58.3    72   25.6   298    32.8   1010.9    0.00 
 140   15:10   0.41   57.6    74   26.1   296    36.5   1010.8    0.00 
 140   15:20   0.62   57.6    73   26.1   297    34.9   1010.8    0.00 
 140   15:30   0.51   56.9    74   25.6   298    33.3   1010.7    0.00 
 140   15:40   0.42   55.8    76   27.0   297    35.5   1010.5    0.00 
 140   15:50   0.62   56.4    76   27.9   296    36.8   1010.3    0.00 
 140   16:00   0.52   56.4    76   29.1   295    37.3   1010.2    0.00 
 140   16:10   0.40   56.1    76   27.4   297    36.5   1010.2    0.00 
 140   16:20   0.14   55.8    77   28.7   296    38.5   1010.2    0.00 
 140   16:30   0.44   55.6    77   27.0   298    35.3   1010.2    0.00 
 140   16:40   0.45   55.6    77   27.8   296    37.0   1010.1    0.00 
 140   16:50   0.39   55.3    78   28.1   297    37.8   1010.0    0.00 
 140   17:00   0.37   55.1    79   27.0   297    36.6   1009.9    0.00 
 140   17:10   0.39   55.1    78   27.6   298    35.7   1009.8    0.00 
 140   17:20   0.35   54.9    79   28.3   298    37.3   1009.8    0.00 
 140   17:30   0.32   54.7    79   26.9   297    38.4   1009.8    0.00 
 140   17:40   0.28   54.5    80   26.2   298    37.1   1009.7    0.00 
 140   17:50   0.25   54.2    80   26.8   300    39.8   1009.6    0.00 
 140   18:00   0.22   53.9    81   27.6   299    36.7   1009.6    0.00 
 140   18:10   0.19   53.6    82   26.3   299    33.7   1009.5    0.00 
 140   18:20   0.16   53.3    82   27.6   300    38.8   1009.5    0.00 
 140   18:30   0.13   53.0    83   27.3   302    37.0   1009.5    0.00 
 140   18:40   0.10   52.7    84   27.1   301    35.2   1009.5    0.00 
 140   18:50   0.07   52.4    84   27.7   302    35.9   1009.4    0.00 
 140   19:00   0.04   52.1    84   27.4   302    35.9   1009.4    0.00 
 140   19:10   0.02   51.9    85   26.6   301    35.3   1009.4    0.00 
 140   19:20   0.01   51.7    86   25.9   301    32.7   1009.3    0.00 
 140   19:30   0.00   51.5    86   23.4   302    33.8   1009.5    0.00 
 140   19:40   0.00   51.5    86   25.3   303    35.1   1009.6    0.00 
 140   19:50   0.00   51.4    87   25.0   302    34.3   1009.6    0.00 
 140   20:00   0.00   51.3    88   24.5   302    32.4   1009.7    0.00 
 140   20:10   0.00   51.2    88   23.8   302    30.5   1009.7    0.00 
 140   20:20   0.00   51.1    88   24.0   302    31.1   1009.7    0.00 
 140   20:30   0.00   51.0    89   22.9   302    30.0   1009.7    0.00 
 140   20:40   0.00   50.9    89   22.5   302    31.1   1009.8    0.00 
 140   20:50   0.00   50.8    89   21.4   303    29.8   1009.9    0.00 
 140   21:00   0.00   50.8    89   21.3   303    28.1   1009.9    0.00 
 140   21:10   0.00   50.8    89   21.7   303    28.4   1009.9    0.00 
 140   21:20   0.00   50.7    89   21.0   302    26.8   1009.9    0.00 
 140   21:30   0.00   50.6    90   19.5   304    25.4   1010.0    0.00 
 140   21:40   0.00   50.6    90   19.2   306    28.3   1010.0    0.00 
 140   21:50   0.00   50.6    90   20.2   305    28.1   1010.0    0.00 
 140   22:00   0.00   50.5    90   18.7   305    26.6   1010.0    0.00 
 140   22:10   0.00   50.4    90   18.4   305    25.2   1010.0    0.00 
 140   22:20   0.00   50.3    91   16.9   308    23.8   1010.0    0.00 
 140   22:30   0.00   50.3    91   15.5   312    22.2   1010.1    0.00 
 140   22:40   0.00   50.1    91   13.1   322    21.2   1010.2    0.00 
 140   22:50   0.00   49.7    91   11.7   320    17.0   1010.1    0.00 
 140   23:00   0.00   49.7    92   13.4   314    20.5   1010.0    0.00 
 140   23:10   0.00   49.8    91   13.2   313    20.1   1009.9    0.00 
 140   23:20   0.00   49.8    92   16.2   312    21.7   1009.8    0.00 
 140   23:30   0.00   49.9    91   15.3   316    19.8   1009.7    0.00 
 140   23:40   0.00   49.7    91   14.4   316    18.9   1009.7    0.00 
 140   23:50   0.00   49.6    91   13.4   316    18.2   1009.7    0.00 
 141    0:00   0.00   49.5    92   14.6   313    19.6   1009.6    0.00 

Return to Bodega Marine Reserve graphs page.


Western Regional Climate Center,wrcc@dri.edu